Airfield :







YOU CAN JOIN US ON...

 
LOGIN :

Register | Disclaimer

   EN    FR    IT 

 









Legend :    VFR   Marginal VFR   IFR   Intensive IFR   Very Intensive IFR
Visi :
Ceiling :
>= 8 km
>= 3000ft
5 to 8 km
1000 to 3000 ft
1500m to 5 km
500 to 1000 ft
800 to 1500m
200 to 500 ft
< 800m
< 200 ft
Symbols :   Thunderstorms  Fog  Heavy snow  Heavy precipitations  Wind > 20 kt






- Airport Elevation : 477 ft
- IATA code : YHZ


CYHZ - Halifax Stanfield Int.

CURRENT METAR :
  • 132300Z 35006KT 15SM OVC007 10/09 A2999 RMK ST8 CIG RAG SLP161

EXPIRED METARs :
  • 132200Z 36007KT 15SM OVC007 10/09 A2997 RMK SC8 SLP155
  • 132100Z 35009KT 15SM OVC008 10/10 A2996 RMK SC8 SLP151

TAF TAF CYHZ
Valid from the 13 at 21:00 until the 14 at 18:00 UTC


132038Z 1321/1418 34009KT P6SM OVC006
TEMPO 1321/1324 OVC010
FM140000 VRB03KT 6SM BR OVC006
FM140300 VRB03KT 6SM BR FEW003
TEMPO 1403/1414 2SM BR BKN003
FM141400 16008KT P6SM BKN015 OVC040 RMK NXT FCST BY 140000Z



MET'MAP, your aeronautical weather chart ! - Copyright ORBIFLY December 2007 - Disclaimer

ORBIFLY MET'MAP TEAM :

Programming & Development : Alexandra Zaïnal
Concept & Development : Baudouin d'Aumeries
Co-Development & Prog : Marc-Olivier Méhu
Technical & hardware support : Manuel Goepfert

Contact : metmap@orbifly.com




SOURCES & CREDITS :

   NOAA